createdAt,value
2019-01-03T00:00:32.461Z,80.3
2019-01-03T00:01:32.357Z,80.8
2019-01-03T00:02:32.665Z,80.6
2019-01-03T00:03:32.802Z,80.8
2019-01-03T00:04:32.709Z,80.8
2019-01-03T00:05:32.605Z,80.9
2019-01-03T00:06:32.563Z,80.4
2019-01-03T00:07:32.479Z,80.6
2019-01-03T00:08:32.395Z,80.1
2019-01-03T00:09:32.309Z,80.5
2019-01-03T00:10:32.219Z,80.5
2019-01-03T00:11:32.117Z,80.5
2019-01-03T00:12:32.463Z,81
2019-01-03T00:13:32.381Z,80.8
2019-01-03T00:14:32.277Z,80.8
2019-01-03T00:15:32.201Z,80.4
2019-01-03T00:16:32.121Z,80.7
2019-01-03T00:17:32.036Z,80.9
2019-01-03T00:18:31.964Z,80.5
2019-01-03T00:19:31.866Z,80.8
2019-01-03T00:20:31.777Z,80.8
2019-01-03T00:21:31.694Z,81.2
2019-01-03T00:22:32.039Z,80.7
2019-01-03T00:23:31.948Z,81.4
2019-01-03T00:24:31.844Z,81.2
2019-01-03T00:25:31.743Z,81.1
2019-01-03T00:26:31.666Z,81.3
2019-01-03T00:27:31.579Z,81.4
2019-01-03T00:28:36.646Z,81.3
2019-01-03T00:29:36.549Z,81.6
2019-01-03T00:30:36.435Z,81.6
2019-01-03T00:31:36.355Z,81.4
2019-01-03T00:32:36.691Z,81.6
2019-01-03T00:33:36.593Z,81.3
2019-01-03T00:42:38.111Z,77.8
2019-01-03T00:43:38.007Z,78
2019-01-03T00:44:37.900Z,78.5
2019-01-03T00:45:37.791Z,78.7
2019-01-03T00:46:37.693Z,78.8
2019-01-03T00:47:37.585Z,79
2019-01-03T00:48:37.486Z,79.6
2019-01-03T00:49:37.389Z,79.4
2019-01-03T00:50:37.271Z,78.4
2019-01-03T00:51:37.170Z,79.3
2019-01-03T00:52:37.511Z,79
2019-01-03T00:53:37.465Z,79.1
2019-01-03T00:54:37.355Z,79.2
2019-01-03T01:02:35.832Z,76.3
2019-01-03T01:03:38.635Z,77.6
2019-01-03T01:04:38.525Z,77.8
2019-01-03T01:05:38.425Z,78
2019-01-03T01:06:38.328Z,77.8
2019-01-03T01:07:38.220Z,78.1
2019-01-03T01:08:38.133Z,78.4
2019-01-03T01:09:38.026Z,79.2
2019-01-03T01:10:40.707Z,78.5
2019-01-03T01:11:40.830Z,78.3
2019-01-03T01:12:41.143Z,79
2019-01-03T01:13:41.071Z,79.4
2019-01-03T01:14:40.961Z,79.3
2019-01-03T01:15:40.866Z,79.4
2019-01-03T01:16:40.770Z,79.6
2019-01-03T01:17:40.700Z,79.8
2019-01-03T01:18:40.642Z,79.9
2019-01-03T01:19:40.763Z,80.4
2019-01-03T01:20:40.657Z,80.3
2019-01-03T01:21:40.773Z,80.7
2019-01-03T01:22:41.114Z,81.2
2019-01-03T01:23:41.015Z,81.3
2019-01-03T01:24:41.946Z,81.4
2019-01-03T01:25:41.834Z,81.6
2019-01-03T01:26:41.719Z,81.4
2019-01-03T01:27:41.612Z,81.7
2019-01-03T01:28:41.544Z,81.6
2019-01-03T01:29:41.428Z,81.4
2019-01-03T01:30:41.313Z,81.8
2019-01-03T01:31:41.217Z,82
2019-01-03T01:32:41.509Z,81.8
2019-01-03T01:33:41.417Z,82.1
2019-01-03T01:34:41.315Z,82.2
2019-01-03T01:35:41.230Z,82.2
2019-01-03T01:36:41.126Z,82
2019-01-03T01:37:41.291Z,82
2019-01-03T01:38:41.195Z,82.1
2019-01-03T01:39:41.088Z,82
2019-01-03T01:40:40.998Z,82.1
2019-01-03T01:41:40.884Z,82.3
2019-01-03T01:42:41.190Z,83.4
2019-01-03T01:43:41.082Z,82.8
2019-01-03T01:44:40.984Z,82.7
2019-01-03T01:45:40.951Z,82.7
2019-01-03T01:46:40.842Z,82.4
2019-01-03T01:47:41.770Z,82.6
2019-01-03T01:48:41.668Z,83
2019-01-03T01:49:41.576Z,82.7
2019-01-03T01:50:41.498Z,82.5
2019-01-03T01:51:41.388Z,82.6
2019-01-03T01:52:41.725Z,82.2
2019-01-03T01:53:41.628Z,82.1
2019-01-03T01:54:41.551Z,81.9
2019-01-03T01:55:41.461Z,82.1
2019-01-03T01:56:41.398Z,82.3
2019-01-03T01:57:41.298Z,82.1
2019-01-03T01:58:41.184Z,82.1
2019-01-03T01:59:41.074Z,82.3
2019-01-03T02:00:40.973Z,82.2
2019-01-03T02:01:40.881Z,83.1
2019-01-03T02:02:41.208Z,82.2
2019-01-03T02:03:41.108Z,82
2019-01-03T02:04:41.034Z,81.8
2019-01-03T02:05:40.921Z,81.6
2019-01-03T02:06:40.831Z,81.7
2019-01-03T02:07:40.697Z,81.6
2019-01-03T02:08:40.592Z,82
2019-01-03T02:09:40.477Z,81.5
2019-01-03T02:10:40.410Z,81.5
2019-01-03T02:11:40.348Z,81.7
2019-01-03T02:12:40.678Z,81.4
2019-01-03T02:13:40.564Z,81.2
2019-01-03T02:14:40.458Z,81.1
2019-01-03T02:15:40.351Z,80.9
2019-01-03T02:16:40.239Z,81.3
2019-01-03T02:17:40.187Z,81.1
2019-01-03T02:18:40.072Z,80.8
2019-01-03T02:19:39.965Z,81.3
2019-01-03T02:20:39.874Z,81.4
2019-01-03T02:21:39.784Z,81.3
2019-01-03T02:22:40.096Z,80.9
2019-01-03T02:23:40.038Z,80.8
2019-01-03T02:24:39.954Z,80.2
2019-01-03T02:32:38.702Z,76.6
2019-01-03T02:33:38.615Z,77.5
2019-01-03T02:34:38.572Z,77.4
2019-01-03T02:35:38.476Z,77.6
2019-01-03T02:36:38.390Z,77.8
2019-01-03T02:37:38.275Z,77.8
2019-01-03T02:38:38.207Z,78.3
2019-01-03T02:39:38.112Z,78.5
2019-01-03T02:40:38.017Z,78.8
2019-01-03T02:41:38.206Z,78.8
2019-01-03T02:42:38.516Z,78.1
2019-01-03T02:43:38.426Z,78
2019-01-03T02:44:38.320Z,78
2019-01-03T02:45:38.232Z,78.1
2019-01-03T02:46:38.147Z,78.3
2019-01-03T02:47:38.061Z,78.3
2019-01-03T02:48:37.963Z,78.5
2019-01-03T02:49:37.846Z,78.6
2019-01-03T02:50:37.740Z,78.7
2019-01-03T02:51:37.658Z,78.4
2019-01-03T02:52:38.000Z,78.8
2019-01-03T02:53:41.276Z,78.7
2019-01-03T02:54:41.191Z,78.8
2019-01-03T02:55:41.088Z,79
2019-01-03T02:56:41.027Z,79.2
2019-01-03T02:57:40.909Z,79.2
2019-01-03T02:58:40.821Z,79.4
2019-01-03T02:59:40.744Z,79.3
2019-01-03T03:00:40.640Z,79.4
2019-01-03T03:01:40.518Z,79.4
2019-01-03T03:02:40.873Z,79.6
2019-01-03T03:03:40.768Z,79.9
2019-01-03T03:04:41.662Z,80.1
2019-01-03T03:05:41.592Z,80.5
2019-01-03T03:06:41.499Z,80.5
2019-01-03T03:07:41.441Z,80.5
2019-01-03T03:08:41.316Z,80.5
2019-01-03T03:09:41.210Z,80.5
2019-01-03T03:10:41.116Z,80.4
2019-01-03T03:11:41.061Z,80.1
2019-01-03T03:12:41.432Z,80.5
2019-01-03T03:13:41.366Z,80.8
2019-01-03T03:14:41.258Z,81.1
2019-01-03T03:15:41.144Z,80.9
2019-01-03T03:16:41.070Z,81.2
2019-01-03T03:17:40.955Z,81.2
2019-01-03T03:18:40.872Z,81.2
2019-01-03T03:19:40.754Z,81.4
2019-01-03T03:20:40.658Z,81.8
2019-01-03T03:21:40.558Z,81.4
2019-01-03T03:22:40.904Z,81.2
2019-01-03T03:23:40.822Z,81.7
2019-01-03T03:24:40.749Z,81.3
2019-01-03T03:25:40.668Z,81.4
2019-01-03T03:26:40.582Z,81.6
2019-01-03T03:27:40.499Z,81.8
2019-01-03T03:28:40.408Z,81.5
2019-01-03T03:29:40.322Z,81.6
2019-01-03T03:30:41.272Z,81.5
2019-01-03T03:31:41.212Z,81.7
2019-01-03T03:32:41.626Z,81.6
2019-01-03T03:33:41.768Z,81.8
2019-01-03T03:34:41.697Z,81.8
2019-01-03T03:35:41.610Z,81.7
2019-01-03T03:36:41.547Z,81.4
2019-01-03T03:37:41.465Z,81.7
2019-01-03T03:38:41.361Z,81.5
2019-01-03T03:39:41.284Z,81.5
2019-01-03T03:40:41.193Z,81.7
2019-01-03T03:41:41.122Z,81.9
2019-01-03T03:42:41.504Z,81.8
2019-01-03T03:43:41.407Z,82.1
2019-01-03T03:44:41.325Z,82
2019-01-03T03:45:41.246Z,82.3
2019-01-03T03:46:41.139Z,83
2019-01-03T03:47:41.073Z,82.3
2019-01-03T03:48:40.963Z,82.1
2019-01-03T03:49:40.905Z,82.1
2019-01-03T03:50:40.805Z,82.2
2019-01-03T03:51:40.745Z,82.3
2019-01-03T03:52:41.129Z,82
2019-01-03T03:53:41.002Z,82.1
2019-01-03T03:54:40.915Z,81.8
2019-01-03T03:55:40.843Z,82.2
2019-01-03T03:56:40.745Z,82.5
2019-01-03T03:57:40.712Z,82.2
2019-01-03T03:58:40.626Z,82
2019-01-03T03:59:40.529Z,82.1
2019-01-03T04:00:40.437Z,82.1
2019-01-03T04:01:40.335Z,81.8
2019-01-03T04:02:40.681Z,81.8
2019-01-03T04:03:40.685Z,81.8
2019-01-03T04:12:38.914Z,77.8
2019-01-03T04:13:38.811Z,78.7
2019-01-03T04:14:38.749Z,78.9
2019-01-03T04:15:38.641Z,79
2019-01-03T04:16:38.533Z,79.1
2019-01-03T04:17:38.436Z,78.7
2019-01-03T04:18:38.555Z,79.3
2019-01-03T04:19:38.476Z,79.5
2019-01-03T04:20:38.429Z,79.4
2019-01-03T04:21:38.318Z,79.6
2019-01-03T04:22:38.676Z,79.2
2019-01-03T04:23:38.596Z,79.4
2019-01-03T04:24:38.511Z,79.6
2019-01-03T04:25:38.429Z,80.2
2019-01-03T04:26:38.368Z,80.1
2019-01-03T04:27:38.258Z,80.3
2019-01-03T04:28:39.203Z,80.1
2019-01-03T04:29:39.116Z,80.3
2019-01-03T04:30:39.032Z,80.4
2019-01-03T04:31:38.929Z,80.7
2019-01-03T04:32:39.335Z,80.7
2019-01-03T04:33:39.247Z,81
2019-01-03T04:34:39.147Z,80.9
2019-01-03T04:35:39.049Z,81
2019-01-03T04:36:38.965Z,81
2019-01-03T04:37:38.914Z,81
2019-01-03T04:38:38.804Z,81.1
2019-01-03T04:39:38.731Z,80.9
2019-01-03T04:40:38.640Z,81
2019-01-03T04:41:38.540Z,81.2
2019-01-03T04:42:38.863Z,81
2019-01-03T04:43:41.777Z,81.3
2019-01-03T04:44:41.664Z,81.7
2019-01-03T04:45:41.569Z,81.7
2019-01-03T04:46:41.474Z,81.3
2019-01-03T04:47:41.406Z,81.9
2019-01-03T04:48:41.332Z,82
2019-01-03T04:49:41.259Z,81.9
2019-01-03T04:50:41.165Z,82
2019-01-03T04:51:41.059Z,81.8
2019-01-03T04:52:42.402Z,81.7
2019-01-03T04:53:42.323Z,82.1
2019-01-03T04:54:42.226Z,81.7
2019-01-03T04:55:42.121Z,81.7
2019-01-03T04:56:44.931Z,81.7
2019-01-03T04:57:44.829Z,81.9
2019-01-03T04:58:44.741Z,81.6
2019-01-03T04:59:44.651Z,81.8
2019-01-03T05:00:44.567Z,81.9
2019-01-03T05:01:44.451Z,81.9
2019-01-03T05:02:44.800Z,81.8
2019-01-03T05:03:44.723Z,81.9
2019-01-03T05:04:44.625Z,81.7
2019-01-03T05:05:44.507Z,81.9
2019-01-03T05:06:44.411Z,81.7
2019-01-03T05:07:44.341Z,81.8
2019-01-03T05:08:44.249Z,81.8
2019-01-03T05:09:44.204Z,81.9
2019-01-03T05:10:44.129Z,82.1
2019-01-03T05:11:44.043Z,82
2019-01-03T05:12:44.381Z,82.1
2019-01-03T05:13:44.286Z,81.8
2019-01-03T05:14:44.203Z,81.8
2019-01-03T05:15:44.159Z,81.7
2019-01-03T05:16:44.047Z,81.5
2019-01-03T05:17:43.992Z,81.6
2019-01-03T05:18:43.888Z,81.7
2019-01-03T05:19:43.866Z,81.4
2019-01-03T05:20:43.757Z,81.8
2019-01-03T05:21:43.682Z,81.5
2019-01-03T05:22:44.044Z,81.7
2019-01-03T05:23:43.937Z,81.6
2019-01-03T05:24:43.853Z,81.2
2019-01-03T05:25:43.745Z,81
2019-01-03T05:26:43.680Z,80.8
2019-01-03T05:27:43.603Z,81.1
2019-01-03T05:28:43.510Z,81
2019-01-03T05:29:43.418Z,80.6
2019-01-03T05:30:43.324Z,80.7
2019-01-03T05:31:43.246Z,80.7
2019-01-03T05:32:43.634Z,80.7
2019-01-03T05:33:43.547Z,81.1
2019-01-03T05:42:41.806Z,77.2
2019-01-03T05:43:41.728Z,77.9
2019-01-03T05:44:42.637Z,78.1
2019-01-03T05:45:42.554Z,78.1
2019-01-03T05:46:42.479Z,78.4
2019-01-03T05:47:42.405Z,78.5
2019-01-03T05:48:42.319Z,78
2019-01-03T05:49:42.223Z,78.1
2019-01-03T05:50:42.176Z,78.7
2019-01-03T05:51:42.076Z,78.5
2019-01-03T05:52:42.392Z,78.2
2019-01-03T05:53:42.294Z,78.8
2019-01-03T05:54:42.194Z,78.4
2019-01-03T05:55:42.097Z,78.8
2019-01-03T05:56:42.039Z,78.9
2019-01-03T05:57:41.947Z,79.1
2019-01-03T05:58:41.834Z,79.3
2019-01-03T05:59:41.754Z,78.6
2019-01-03T06:00:41.684Z,79.1
2019-01-03T06:01:41.602Z,79.4
2019-01-03T06:02:41.943Z,79.5
2019-01-03T06:03:41.860Z,79.5
2019-01-03T06:04:42.058Z,79.4
2019-01-03T06:05:41.962Z,79.3
2019-01-03T06:06:41.870Z,78.9
2019-01-03T06:07:41.788Z,79.5
2019-01-03T06:08:41.705Z,79.6
2019-01-03T06:09:41.635Z,79.7
2019-01-03T06:10:41.526Z,79.3
2019-01-03T06:11:41.439Z,79
2019-01-03T06:12:41.804Z,79.2
2019-01-03T06:13:42.725Z,79.4
2019-01-03T06:14:42.618Z,79.3
2019-01-03T06:15:42.566Z,79.1
2019-01-03T06:16:42.441Z,78.9
2019-01-03T06:17:42.323Z,78.5
2019-01-03T06:18:42.209Z,78.8
2019-01-03T06:19:42.094Z,79
2019-01-03T06:20:42.010Z,79.2
2019-01-03T06:21:41.892Z,79.1
2019-01-03T06:22:42.196Z,78.7
2019-01-03T06:23:42.106Z,78.1
2019-01-03T06:24:41.981Z,78.1
2019-01-03T06:25:41.898Z,78.1
2019-01-03T06:26:41.846Z,77.8
2019-01-03T06:27:41.728Z,77.9
2019-01-03T06:28:41.623Z,78.1
2019-01-03T06:29:41.530Z,77.4
2019-01-03T06:30:41.421Z,77.6
2019-01-03T06:31:41.320Z,77.6
2019-01-03T06:32:41.700Z,77.5
2019-01-03T06:33:41.594Z,77.6
2019-01-03T06:34:41.494Z,77.4
2019-01-03T06:35:41.378Z,77.4
2019-01-03T06:36:41.300Z,77
2019-01-03T06:37:41.222Z,76.3
2019-01-03T06:38:41.114Z,77.1
2019-01-03T06:39:40.998Z,77.1
2019-01-03T06:40:41.121Z,76.8
2019-01-03T06:41:41.001Z,77.3
2019-01-03T06:42:41.328Z,76.6
2019-01-03T06:43:41.220Z,77
2019-01-03T06:44:41.094Z,77.7
2019-01-03T06:45:41.014Z,77.8
2019-01-03T06:46:41.903Z,76.8
2019-01-03T06:47:41.864Z,77.1
2019-01-03T06:48:42.015Z,76.7
2019-01-03T06:49:41.922Z,76.8
2019-01-03T06:50:41.812Z,76.2
2019-01-03T06:51:44.622Z,76.6
2019-01-03T06:52:44.976Z,75.8
2019-01-03T06:53:44.861Z,76.4
2019-01-03T06:54:44.741Z,76.5
2019-01-03T06:55:47.208Z,76.6
2019-01-03T06:56:47.153Z,76.9
2019-01-03T06:57:47.094Z,76.6
2019-01-03T06:58:46.976Z,77.1
2019-01-03T06:59:46.866Z,76.1
2019-01-03T07:00:46.765Z,76.2
2019-01-03T07:01:46.664Z,77
2019-01-03T07:02:46.966Z,76.5
2019-01-03T07:03:46.874Z,77
2019-01-03T07:04:46.774Z,76.7
2019-01-03T07:05:46.686Z,76.9
2019-01-03T07:06:46.567Z,76.7
2019-01-03T07:07:46.470Z,76.2
2019-01-03T07:08:47.381Z,77.1
2019-01-03T07:09:47.277Z,76.9
2019-01-03T07:10:47.186Z,76.9
2019-01-03T07:11:47.086Z,76.2
2019-01-03T07:12:47.378Z,76.2
2019-01-03T07:13:50.378Z,75.9
2019-01-03T07:14:50.278Z,76
2019-01-03T07:15:50.163Z,76.7
2019-01-03T07:16:50.054Z,76.6
2019-01-03T07:17:49.938Z,76
2019-01-03T07:18:49.841Z,75.8
2019-01-03T07:19:49.786Z,76.2
2019-01-03T07:20:49.676Z,75.8
2019-01-03T07:21:49.573Z,75.2
2019-01-03T07:22:49.920Z,75.4
2019-01-03T07:23:50.084Z,75.7
2019-01-03T07:24:49.968Z,75.4
2019-01-03T07:25:49.906Z,75.4
2019-01-03T07:26:49.774Z,75.6
2019-01-03T07:27:52.284Z,74.7
2019-01-03T07:28:52.224Z,75.5
2019-01-03T07:29:52.107Z,76
2019-01-03T07:30:52.239Z,74.9
2019-01-03T07:31:52.167Z,75.6
2019-01-03T07:32:52.494Z,75.1
2019-01-03T07:33:52.383Z,75.8
2019-01-03T07:34:52.278Z,74.5
2019-01-03T07:42:52.008Z,71.8
2019-01-03T07:43:51.929Z,72.6
2019-01-03T07:44:51.820Z,72.8
2019-01-03T07:45:51.729Z,73.6
2019-01-03T07:46:51.631Z,74
2019-01-03T07:47:51.521Z,73.7
2019-01-03T07:48:52.453Z,74.2
2019-01-03T07:49:52.343Z,74.2
2019-01-03T07:50:52.269Z,74.2
2019-01-03T07:51:52.152Z,73.9
2019-01-03T07:52:52.693Z,74.4
2019-01-03T07:53:52.591Z,74.3
2019-01-03T07:54:52.489Z,74.5
2019-01-03T07:55:52.364Z,74.7
2019-01-03T07:56:52.289Z,74.7
2019-01-03T07:57:52.193Z,75
2019-01-03T07:58:52.309Z,74.4
2019-01-03T07:59:52.215Z,74.8
2019-01-03T08:00:52.092Z,74.7
2019-01-03T08:01:52.011Z,74.9
2019-01-03T08:02:52.337Z,75
2019-01-03T08:03:52.435Z,74.6
2019-01-03T08:04:52.351Z,74.7
2019-01-03T08:05:58.287Z,75
2019-01-03T08:07:00.479Z,74.7
2019-01-03T08:08:00.391Z,75
2019-01-03T08:09:06.953Z,75.4
2019-01-03T08:10:09.667Z,75.4
2019-01-03T08:11:09.575Z,75.4
2019-01-03T08:12:09.495Z,75
2019-01-03T08:13:12.471Z,75.2
2019-01-03T08:14:12.360Z,75.4
2019-01-03T08:15:12.266Z,75.4
2019-01-03T08:16:12.151Z,75.8
2019-01-03T08:17:12.064Z,75.9
2019-01-03T08:18:11.963Z,75.3
2019-01-03T08:19:11.887Z,75.7
2019-01-03T08:20:11.766Z,75.8
2019-01-03T08:21:11.720Z,76.2
2019-01-03T08:22:11.611Z,76.3
2019-01-03T08:23:14.896Z,76.1
2019-01-03T08:24:14.785Z,75.9
2019-01-03T08:32:12.833Z,73.1
2019-01-03T08:33:13.169Z,73.2
2019-01-03T08:34:13.121Z,73.6
2019-01-03T08:35:16.108Z,73.9
2019-01-03T08:36:16.007Z,73.6
2019-01-03T08:37:15.888Z,71.6
2019-01-03T08:38:15.791Z,73.2
2019-01-03T08:39:15.704Z,75.4
2019-01-03T08:40:15.583Z,76
2019-01-03T08:41:15.503Z,76.3
2019-01-03T08:42:15.412Z,76
2019-01-03T08:43:15.699Z,75.6
2019-01-03T08:44:15.597Z,75.4
2019-01-03T08:45:15.527Z,76.5
2019-01-03T08:46:15.465Z,76.3
2019-01-03T08:47:15.359Z,76
2019-01-03T08:48:15.285Z,75.8
2019-01-03T08:49:15.215Z,75.8
2019-01-03T08:50:15.109Z,75.4
2019-01-03T08:51:15.053Z,75.6
2019-01-03T08:52:14.941Z,75.7
2019-01-03T08:53:16.255Z,75.8
2019-01-03T08:54:16.173Z,76.2
2019-01-03T08:55:16.071Z,76.5
2019-01-03T08:56:15.981Z,75.7
2019-01-03T08:57:15.887Z,75.5
2019-01-03T08:58:16.846Z,75.4
2019-01-03T08:59:16.753Z,75.6
2019-01-03T09:00:16.659Z,75.6
2019-01-03T09:01:16.579Z,75.7
2019-01-03T09:02:16.453Z,75.2
2019-01-03T09:03:16.746Z,76
2019-01-03T09:04:17.647Z,75.9
2019-01-03T09:05:17.531Z,76.9
2019-01-03T09:06:17.426Z,75.9
2019-01-03T09:07:17.347Z,76.4
2019-01-03T09:08:17.239Z,76.4
2019-01-03T09:09:19.711Z,76
2019-01-03T09:10:19.603Z,75.9
2019-01-03T09:11:19.503Z,75.4
2019-01-03T09:12:19.401Z,75.6
2019-01-03T09:13:19.741Z,75.1
2019-01-03T09:14:19.647Z,75.6
2019-01-03T09:15:19.543Z,75.6
2019-01-03T09:16:19.417Z,75.7
2019-01-03T09:17:19.320Z,75.1
2019-01-03T09:18:19.278Z,75.1
2019-01-03T09:19:19.186Z,75.6
2019-01-03T09:20:19.065Z,75.4
2019-01-03T09:21:18.969Z,75.5
2019-01-03T09:22:18.853Z,75.6
2019-01-03T09:23:19.191Z,75.7
2019-01-03T09:24:19.091Z,75.7
2019-01-03T09:25:18.995Z,75.4
2019-01-03T09:26:18.901Z,75.7
2019-01-03T09:27:18.814Z,75.8
2019-01-03T09:28:18.737Z,75.9
2019-01-03T09:29:21.518Z,76
2019-01-03T09:30:21.405Z,75.8
2019-01-03T09:31:21.291Z,75.7
2019-01-03T09:32:21.182Z,75.7
2019-01-03T09:33:21.536Z,75.6
2019-01-03T09:34:21.442Z,75.4
2019-01-03T09:35:21.347Z,75.1
2019-01-03T09:36:21.233Z,75
2019-01-03T09:37:27.433Z,75
2019-01-03T09:38:27.370Z,75.1
2019-01-03T09:39:27.483Z,74.9
2019-01-03T09:40:27.663Z,74.8
2019-01-03T09:41:27.541Z,74.5
2019-01-03T09:42:27.508Z,75.2
2019-01-03T09:43:27.823Z,74.7
2019-01-03T09:44:27.723Z,74.8
2019-01-03T09:45:27.615Z,75
2019-01-03T09:46:27.514Z,75.4
2019-01-03T09:47:27.400Z,75
2019-01-03T09:48:27.297Z,75.3
2019-01-03T09:49:27.221Z,75.1
2019-01-03T09:50:27.119Z,74.6
2019-01-03T09:51:28.284Z,74.8
2019-01-03T09:52:39.940Z,75.1
2019-01-03T09:53:40.245Z,75.3
2019-01-03T09:54:40.168Z,75.2
2019-01-03T09:55:40.078Z,74.4
2019-01-03T09:56:39.975Z,74.1
2019-01-03T10:03:38.704Z,70.7
2019-01-03T10:04:38.602Z,71.6
2019-01-03T10:05:38.533Z,72
2019-01-03T10:06:38.450Z,72.3
2019-01-03T10:07:38.340Z,72.1
2019-01-03T10:08:38.215Z,72.6
2019-01-03T10:09:38.102Z,73.1
2019-01-03T10:10:38.045Z,72.4
2019-01-03T10:11:37.938Z,72.6
2019-01-03T10:12:37.843Z,72.9
2019-01-03T10:13:38.172Z,72.1
2019-01-03T10:14:38.091Z,72.9
2019-01-03T10:15:38.007Z,72.5
2019-01-03T10:16:37.930Z,72.1
2019-01-03T10:23:37.960Z,70.7
2019-01-03T10:24:38.118Z,71.1
2019-01-03T10:25:38.006Z,70.5
2019-01-03T10:26:37.912Z,71.1
2019-01-03T10:27:37.822Z,71.4
2019-01-03T10:28:38.014Z,71.1
2019-01-03T10:29:37.912Z,71.2
2019-01-03T10:30:37.860Z,70.5
2019-01-03T10:31:37.761Z,70.7
2019-01-03T10:32:39.297Z,71.4
2019-01-03T10:33:39.617Z,72
2019-01-03T10:34:39.604Z,71.4
2019-01-03T10:35:39.538Z,71.5
2019-01-03T10:36:39.434Z,72.3
2019-01-03T10:37:39.332Z,72.2
2019-01-03T10:38:39.236Z,72.5
2019-01-03T10:39:39.114Z,71.9
2019-01-03T10:40:39.032Z,71.6
2019-01-03T10:41:38.932Z,72
2019-01-03T10:42:38.838Z,72.3
2019-01-03T10:43:39.170Z,71.9
2019-01-03T10:44:39.074Z,72.1
2019-01-03T10:45:38.985Z,72.2
2019-01-03T10:46:38.888Z,72.3
2019-01-03T10:47:38.782Z,72.3
2019-01-03T10:48:38.686Z,73
2019-01-03T10:49:38.572Z,72.1
2019-01-03T10:50:38.500Z,72.4
2019-01-03T10:51:38.406Z,72
2019-01-03T10:52:38.305Z,71.5
2019-01-03T10:53:41.190Z,71.9
2019-01-03T10:54:41.072Z,72
2019-01-03T10:55:41.014Z,72.5
2019-01-03T10:56:40.950Z,72.4
2019-01-03T10:57:40.866Z,71.2
2019-01-03T10:58:40.816Z,70.9
2019-01-03T10:59:40.722Z,71.8
2019-01-03T11:00:40.639Z,71.6
2019-01-03T11:01:40.543Z,72
2019-01-03T11:02:40.706Z,71.4
2019-01-03T11:03:43.781Z,71.5
2019-01-03T11:04:43.675Z,71.4
2019-01-03T11:05:43.602Z,72.4
2019-01-03T11:06:43.488Z,71.6
2019-01-03T11:07:43.399Z,71.7
2019-01-03T11:08:43.276Z,71.1
2019-01-03T11:09:43.192Z,71.4
2019-01-03T11:10:43.100Z,70.8
2019-01-03T11:11:43.008Z,70.3
2019-01-03T11:12:42.910Z,70.4
2019-01-03T11:13:43.318Z,70.5
2019-01-03T11:14:43.222Z,69.6
2019-01-03T11:15:44.352Z,69.9
2019-01-03T11:16:44.270Z,70.3
2019-01-03T11:17:44.173Z,69.8
2019-01-03T11:18:44.098Z,70.1
2019-01-03T11:19:43.989Z,70.3
2019-01-03T11:20:43.877Z,70
2019-01-03T11:21:44.060Z,69.9
2019-01-03T11:22:43.982Z,69.1
2019-01-03T11:23:44.313Z,69.1
2019-01-03T11:24:44.212Z,68.9
2019-01-03T11:25:44.124Z,70
2019-01-03T11:26:44.012Z,68.2
2019-01-03T11:27:43.944Z,68.9
2019-01-03T11:28:44.137Z,68.5
2019-01-03T11:29:44.421Z,69.3
2019-01-03T11:30:44.558Z,69.5
2019-01-03T11:31:44.445Z,69.2
2019-01-03T11:32:44.366Z,70.1
2019-01-03T11:33:44.709Z,70.8
2019-01-03T11:34:44.616Z,69.4
2019-01-03T11:35:44.528Z,68.4
2019-01-03T11:36:44.434Z,68.9
2019-01-03T11:37:44.348Z,67.2
2019-01-03T11:40:43.982Z,67
2019-01-03T11:41:43.872Z,66.5
2019-01-03T11:42:43.785Z,65.8
2019-01-03T11:43:44.129Z,65.7
2019-01-03T11:44:44.025Z,66.1
2019-01-03T11:45:43.948Z,66.6
2019-01-03T11:46:43.876Z,66.1
2019-01-03T11:47:43.818Z,65.6
2019-01-03T11:48:43.727Z,66.4
2019-01-03T11:49:43.645Z,66.6
2019-01-03T11:50:43.553Z,66.9
2019-01-03T11:51:43.471Z,67
2019-01-03T11:52:43.393Z,67.7
2019-01-03T11:53:43.736Z,68
2019-01-03T11:54:43.632Z,67.4
2019-01-03T11:55:43.562Z,67.2
2019-01-03T11:56:43.487Z,67.6
2019-01-03T11:57:43.411Z,66.5
2019-01-03T11:58:43.307Z,66.3
2019-01-03T11:59:44.202Z,65.9
2019-01-03T12:00:44.111Z,65.4
2019-01-03T12:01:44.072Z,65.7
2019-01-03T12:03:44.371Z,65.7
2019-01-03T12:04:44.255Z,65.6
2019-01-03T12:05:44.159Z,65.6
2019-01-03T12:06:44.072Z,65.8
2019-01-03T12:07:43.985Z,65.7
2019-01-03T12:08:43.867Z,65.7
2019-01-03T12:09:43.761Z,66
2019-01-03T12:10:43.677Z,66
2019-01-03T12:11:43.569Z,66.7
2019-01-03T12:12:43.473Z,67
2019-01-03T12:13:43.801Z,66.2
2019-01-03T12:14:43.713Z,66.3
2019-01-03T12:15:43.603Z,66.7
2019-01-03T12:16:43.499Z,66.4
2019-01-03T12:17:43.411Z,66.9
2019-01-03T12:18:43.316Z,66.5
2019-01-03T12:19:43.261Z,66.1
2019-01-03T12:20:43.147Z,65.6
2019-01-03T12:21:43.041Z,66.5
2019-01-03T12:22:42.923Z,66.6
2019-01-03T12:23:43.273Z,66.7
2019-01-03T12:24:43.167Z,67.3
2019-01-03T12:25:43.064Z,66.5
2019-01-03T12:26:42.991Z,65.7
2019-01-03T12:27:42.890Z,64.9
2019-01-03T12:28:42.842Z,65
2019-01-03T12:29:42.741Z,65.2
2019-01-03T12:33:42.285Z,63.8
2019-01-03T12:34:42.189Z,64.6
2019-01-03T12:35:42.073Z,64.4
2019-01-03T12:36:41.992Z,64.8
2019-01-03T12:37:41.869Z,64.4
2019-01-03T12:38:41.827Z,64.9
2019-01-03T12:39:41.757Z,64.5
2019-01-03T12:40:41.692Z,65.4
2019-01-03T12:41:41.639Z,65
2019-01-03T12:42:41.529Z,65.4
2019-01-03T12:43:42.218Z,64.9
2019-01-03T12:44:42.360Z,64
2019-01-03T12:45:42.273Z,64.6
2019-01-03T12:47:41.919Z,64.6
2019-01-03T12:49:45.948Z,64
2019-01-03T12:50:45.843Z,64.1
2019-01-03T12:51:45.751Z,63.1
2019-01-03T12:54:45.820Z,62.7
2019-01-03T12:56:46.063Z,63
2019-01-03T12:58:45.859Z,62.7
2019-01-03T13:03:45.375Z,61.8
2019-01-03T13:04:46.325Z,62.9
2019-01-03T13:05:46.237Z,63.1
2019-01-03T13:06:46.158Z,63.6
2019-01-03T13:07:46.299Z,64
2019-01-03T13:08:46.602Z,63.8
2019-01-03T13:09:46.887Z,64.3
2019-01-03T13:10:47.629Z,64.9
2019-01-03T13:11:48.980Z,65.2
2019-01-03T13:12:49.279Z,65.3
2019-01-03T13:13:50.417Z,65.2
2019-01-03T13:14:50.803Z,64.9
2019-01-03T13:15:50.827Z,63.8
2019-01-03T13:16:50.963Z,64.5
2019-01-03T13:17:50.839Z,64.3
2019-01-03T13:18:50.741Z,63.6
2019-01-03T13:20:50.384Z,64.1
2019-01-03T13:22:50.105Z,62.8
2019-01-03T13:23:50.709Z,62.6
2019-01-03T13:24:50.629Z,63
2019-01-03T13:25:50.545Z,63.8
2019-01-03T13:26:51.127Z,63.8
2019-01-03T13:27:51.604Z,63.3
2019-01-03T13:28:51.811Z,63.5
2019-01-03T13:29:51.912Z,63.6
2019-01-03T13:30:54.769Z,63.5
2019-01-03T13:31:54.883Z,63.3
2019-01-03T13:32:55.249Z,64.2
2019-01-03T13:33:55.931Z,64.2
2019-01-03T13:34:55.831Z,64.7
2019-01-03T13:35:55.775Z,65
2019-01-03T13:36:55.671Z,65.1
2019-01-03T13:37:55.577Z,65.4
2019-01-03T13:38:55.739Z,65.2
2019-01-03T13:39:55.634Z,65.9
2019-01-03T13:40:55.552Z,65.8
2019-01-03T13:41:55.947Z,66.3
2019-01-03T13:42:56.298Z,66.3
2019-01-03T13:43:57.209Z,66.6
2019-01-03T13:45:00.295Z,66.5
2019-01-03T13:46:00.213Z,67
2019-01-03T13:47:03.385Z,65.5
2019-01-03T13:48:03.437Z,64.3
2019-01-03T13:50:03.267Z,64.1
2019-01-03T13:51:03.181Z,64
2019-01-03T13:53:06.897Z,63.6
2019-01-03T13:54:07.555Z,63.6
2019-01-03T13:55:07.495Z,64.4
2019-01-03T13:56:07.381Z,64.9
2019-01-03T13:57:07.313Z,65
2019-01-03T13:58:07.493Z,64.7
2019-01-03T13:59:07.390Z,64.7
2019-01-03T14:00:07.296Z,64.6
2019-01-03T14:01:07.200Z,65.2
2019-01-03T14:02:10.128Z,65.2
2019-01-03T14:03:10.086Z,65.2
2019-01-03T14:04:10.398Z,65.9
2019-01-03T14:05:10.295Z,65
2019-01-03T14:06:10.179Z,65
2019-01-03T14:07:10.088Z,65
2019-01-03T14:08:10.008Z,65.8
2019-01-03T14:09:09.899Z,66.1
2019-01-03T14:10:11.256Z,66.4
2019-01-03T14:11:11.162Z,65.7
2019-01-03T14:12:11.126Z,65.5
2019-01-03T14:13:11.027Z,65.8
2019-01-03T14:14:11.355Z,65.6
2019-01-03T14:15:11.492Z,65.7
2019-01-03T14:16:11.628Z,66.2
2019-01-03T14:17:11.570Z,66.3
2019-01-03T14:18:11.474Z,66.1
2019-01-03T14:19:11.392Z,66.3
2019-01-03T14:20:11.289Z,66.9
2019-01-03T14:21:11.206Z,67.4
2019-01-03T14:22:11.119Z,66.9
2019-01-03T14:23:11.040Z,66.7
2019-01-03T14:24:11.606Z,66.4
2019-01-03T14:25:11.505Z,66.6
2019-01-03T14:26:11.402Z,66.3
2019-01-03T14:29:10.780Z,64.5
2019-01-03T14:36:09.546Z,63.8
2019-01-03T14:40:08.636Z,62.8
2019-01-03T14:41:08.553Z,62.9
2019-01-03T14:44:08.354Z,62.2
2019-01-03T14:45:08.247Z,63.1
2019-01-03T14:46:08.129Z,63.8
2019-01-03T14:47:08.058Z,64.2
2019-01-03T14:48:07.924Z,64.6
2019-01-03T14:49:07.856Z,64.5
2019-01-03T14:50:07.753Z,64.7
2019-01-03T14:51:07.648Z,65.1
2019-01-03T14:52:07.550Z,65
2019-01-03T14:53:07.451Z,65.4
2019-01-03T14:54:07.782Z,65.4
2019-01-03T14:55:07.694Z,65.5
2019-01-03T14:56:07.600Z,65.8
2019-01-03T14:57:07.530Z,66
2019-01-03T14:58:07.420Z,66.5
2019-01-03T14:59:07.290Z,66.5
2019-01-03T15:00:07.206Z,66.7
2019-01-03T15:01:07.107Z,67
2019-01-03T15:02:06.995Z,67
2019-01-03T15:03:06.898Z,66.4